« Back
NWS Peachtree City, Ga » Text Product » CSG Terminal Aerodrome Forecast


Printer-friendly Version
Current Version              Previous Versions:   1  2  3  4  5  6  7  8  9  

Terminal Aerodrome Forecast

829
FTUS42 KFFC 301405 AAA
TAFCSG
TAF AMD
KCSG 301405Z 3014/3112 21007KT 5SM -RA BR SCT008 BKN025
      TEMPO 3014/3016 1SM RA BR OVC008
     FM301600 28009KT P6SM BKN012 OVC035
     FM301900 29009KT P6SM SCT035
     FM310000 30005KT P6SM SKC
     FM310400 34003KT P6SM SKC=

USA.gov is the U.S. government's official web portal to all federal, state and local government web resources and services.